A11 weather

Pinjarra Skydiving Airstrip
Pinjarra, Western Australia, Australia

Public forecast

Using degrees Celsius for public forecast. Weather courtesy of forecast.io.

METAR (pilot weather report)

Closest report is Perth Jandakot Airport, 34.2 nm (63.3 km) N. Retrieved 2019/03/19 20:30 UTC (14 minutes ago):

YPJT 192030Z AUTO 36004KT 9000 // NCD 20/20 Q1010 RF00.0/000.0

TAF (pilot weather forecast)

Forecast is more than 6 hours old.

Closest forecast is Perth Jandakot Airport, 34.2 nm (63.3 km) N. Retrieved 2019/03/19 12:00 UTC (9 hours ago):

TAF YPJT 191048Z 1912/2006 19005KT CAVOK FM200400 25012KT CAVOK